sensor_id;sensor_type;location;lat;lon;timestamp;P1;durP1;ratioP1;P2;durP2;ratioP2
67274;SDS011;55463;52.324;5.122;2023-01-04T00:01:02;7.35;;;2.90;;
67274;SDS011;55463;52.324;5.122;2023-01-04T00:03:29;6.70;;;2.45;;
67274;SDS011;55463;52.324;5.122;2023-01-04T00:05:59;8.95;;;2.92;;
67274;SDS011;55463;52.324;5.122;2023-01-04T00:10:52;13.57;;;2.50;;
67274;SDS011;55463;52.324;5.122;2023-01-04T00:13:18;8.38;;;2.47;;
67274;SDS011;55463;52.324;5.122;2023-01-04T00:15:43;7.82;;;2.70;;
67274;SDS011;55463;52.324;5.122;2023-01-04T00:18:08;9.80;;;2.63;;
67274;SDS011;55463;52.324;5.122;2023-01-04T00:20:34;4.85;;;2.60;;
67274;SDS011;55463;52.324;5.122;2023-01-04T00:22:59;5.60;;;2.38;;
67274;SDS011;55463;52.324;5.122;2023-01-04T00:25:25;4.25;;;2.50;;
67274;SDS011;55463;52.324;5.122;2023-01-04T00:27:51;7.22;;;2.30;;
67274;SDS011;55463;52.324;5.122;2023-01-04T00:30:17;5.57;;;2.40;;
67274;SDS011;55463;52.324;5.122;2023-01-04T00:32:42;4.82;;;2.03;;
67274;SDS011;55463;52.324;5.122;2023-01-04T00:35:09;5.22;;;2.20;;
67274;SDS011;55463;52.324;5.122;2023-01-04T00:37:35;6.15;;;2.22;;
67274;SDS011;55463;52.324;5.122;2023-01-04T00:40:01;7.18;;;2.40;;
67274;SDS011;55463;52.324;5.122;2023-01-04T00:42:26;6.28;;;2.17;;
67274;SDS011;55463;52.324;5.122;2023-01-04T00:44:52;4.43;;;2.08;;
67274;SDS011;55463;52.324;5.122;2023-01-04T00:47:17;4.28;;;2.20;;
67274;SDS011;55463;52.324;5.122;2023-01-04T00:49:42;2.33;;;2.10;;
67274;SDS011;55463;52.324;5.122;2023-01-04T00:52:08;5.95;;;2.25;;
67274;SDS011;55463;52.324;5.122;2023-01-04T00:54:33;6.22;;;2.33;;
67274;SDS011;55463;52.324;5.122;2023-01-04T00:56:59;7.30;;;2.10;;
67274;SDS011;55463;52.324;5.122;2023-01-04T00:59:25;3.53;;;2.67;;
67274;SDS011;55463;52.324;5.122;2023-01-04T01:01:50;5.60;;;2.38;;
67274;SDS011;55463;52.324;5.122;2023-01-04T01:04:17;9.52;;;2.67;;
67274;SDS011;55463;52.324;5.122;2023-01-04T01:06:44;5.32;;;2.70;;
67274;SDS011;55463;52.324;5.122;2023-01-04T01:09:10;7.78;;;3.25;;
67274;SDS011;55463;52.324;5.122;2023-01-04T01:11:36;4.70;;;2.65;;
67274;SDS011;55463;52.324;5.122;2023-01-04T01:14:03;6.85;;;2.85;;
67274;SDS011;55463;52.324;5.122;2023-01-04T01:16:29;7.10;;;2.50;;
67274;SDS011;55463;52.324;5.122;2023-01-04T01:18:55;7.25;;;2.78;;
67274;SDS011;55463;52.324;5.122;2023-01-04T01:21:21;3.67;;;2.00;;
67274;SDS011;55463;52.324;5.122;2023-01-04T01:23:48;5.88;;;2.00;;
67274;SDS011;55463;52.324;5.122;2023-01-04T01:26:15;1.80;;;1.63;;
67274;SDS011;55463;52.324;5.122;2023-01-04T01:28:42;2.47;;;2.03;;
67274;SDS011;55463;52.324;5.122;2023-01-04T01:31:12;4.25;;;2.35;;
67274;SDS011;55463;52.324;5.122;2023-01-04T01:33:49;4.38;;;2.35;;
67274;SDS011;55463;52.324;5.122;2023-01-04T01:36:17;5.25;;;2.30;;
67274;SDS011;55463;52.324;5.122;2023-01-04T01:38:44;4.32;;;2.72;;
67274;SDS011;55463;52.324;5.122;2023-01-04T01:41:28;4.28;;;2.70;;
67274;SDS011;55463;52.324;5.122;2023-01-04T01:46:28;3.03;;;2.55;;
67274;SDS011;55463;52.324;5.122;2023-01-04T01:51:49;4.78;;;3.90;;
67274;SDS011;55463;52.324;5.122;2023-01-04T01:54:18;5.97;;;3.53;;
67274;SDS011;55463;52.324;5.122;2023-01-04T01:56:50;5.65;;;3.53;;
67274;SDS011;55463;52.324;5.122;2023-01-04T01:59:17;4.85;;;3.17;;
67274;SDS011;55463;52.324;5.122;2023-01-04T02:01:45;5.15;;;3.80;;
67274;SDS011;55463;52.324;5.122;2023-01-04T02:04:10;4.57;;;3.63;;
67274;SDS011;55463;52.324;5.122;2023-01-04T02:06:41;5.18;;;3.38;;
67274;SDS011;55463;52.324;5.122;2023-01-04T02:09:15;6.93;;;3.65;;
67274;SDS011;55463;52.324;5.122;2023-01-04T02:11:41;3.90;;;3.40;;
67274;SDS011;55463;52.324;5.122;2023-01-04T02:14:07;5.32;;;3.47;;
67274;SDS011;55463;52.324;5.122;2023-01-04T02:25:37;4.18;;;3.67;;
67274;SDS011;55463;52.324;5.122;2023-01-04T02:28:21;8.75;;;4.20;;
67274;SDS011;55463;52.324;5.122;2023-01-04T02:33:42;5.95;;;3.90;;
67274;SDS011;55463;52.324;5.122;2023-01-04T02:39:16;5.53;;;4.07;;
67274;SDS011;55463;52.324;5.122;2023-01-04T02:41:57;5.15;;;4.13;;
67274;SDS011;55463;52.324;5.122;2023-01-04T02:44:28;8.15;;;4.28;;
67274;SDS011;55463;52.324;5.122;2023-01-04T02:50:31;7.75;;;5.25;;
67274;SDS011;55463;52.324;5.122;2023-01-04T02:53:00;8.85;;;4.60;;
67274;SDS011;55463;52.324;5.122;2023-01-04T02:55:46;5.15;;;4.55;;
67274;SDS011;55463;52.324;5.122;2023-01-04T03:01:27;6.43;;;4.78;;
67274;SDS011;55463;52.324;5.122;2023-01-04T03:13:23;4.95;;;4.40;;
67274;SDS011;55463;52.324;5.122;2023-01-04T03:15:53;4.95;;;4.30;;
67274;SDS011;55463;52.324;5.122;2023-01-04T03:18:35;6.00;;;4.28;;
67274;SDS011;55463;52.324;5.122;2023-01-04T03:21:04;7.63;;;4.05;;
67274;SDS011;55463;52.324;5.122;2023-01-04T03:23:34;8.30;;;4.35;;
67274;SDS011;55463;52.324;5.122;2023-01-04T03:26:20;7.07;;;4.68;;
67274;SDS011;55463;52.324;5.122;2023-01-04T03:29:07;7.75;;;3.53;;
67274;SDS011;55463;52.324;5.122;2023-01-04T03:31:57;9.50;;;3.92;;
67274;SDS011;55463;52.324;5.122;2023-01-04T03:34:54;5.00;;;4.05;;
67274;SDS011;55463;52.324;5.122;2023-01-04T03:41:04;4.93;;;3.60;;
67274;SDS011;55463;52.324;5.122;2023-01-04T03:44:10;4.93;;;3.53;;
67274;SDS011;55463;52.324;5.122;2023-01-04T03:47:04;5.10;;;3.17;;
67274;SDS011;55463;52.324;5.122;2023-01-04T03:49:55;4.18;;;3.40;;
67274;SDS011;55463;52.324;5.122;2023-01-04T03:52:26;7.63;;;3.90;;
67274;SDS011;55463;52.324;5.122;2023-01-04T03:54:53;5.68;;;4.07;;
67274;SDS011;55463;52.324;5.122;2023-01-04T03:57:22;5.38;;;3.25;;
67274;SDS011;55463;52.324;5.122;2023-01-04T03:59:49;7.53;;;4.00;;
67274;SDS011;55463;52.324;5.122;2023-01-04T04:02:21;6.13;;;3.80;;
67274;SDS011;55463;52.324;5.122;2023-01-04T04:04:48;5.63;;;3.80;;
67274;SDS011;55463;52.324;5.122;2023-01-04T04:07:32;6.03;;;3.47;;
67274;SDS011;55463;52.324;5.122;2023-01-04T04:10:16;4.90;;;3.80;;
67274;SDS011;55463;52.324;5.122;2023-01-04T04:12:42;7.47;;;4.53;;
67274;SDS011;55463;52.324;5.122;2023-01-04T04:15:07;6.63;;;4.25;;
67274;SDS011;55463;52.324;5.122;2023-01-04T04:17:33;5.60;;;4.15;;
67274;SDS011;55463;52.324;5.122;2023-01-04T04:19:58;5.95;;;4.15;;
67274;SDS011;55463;52.324;5.122;2023-01-04T04:22:24;6.07;;;3.90;;
67274;SDS011;55463;52.324;5.122;2023-01-04T04:24:49;6.68;;;3.88;;
67274;SDS011;55463;52.324;5.122;2023-01-04T04:27:14;10.52;;;4.72;;
67274;SDS011;55463;52.324;5.122;2023-01-04T04:29:39;6.28;;;4.25;;
67274;SDS011;55463;52.324;5.122;2023-01-04T04:32:05;6.50;;;4.05;;
67274;SDS011;55463;52.324;5.122;2023-01-04T04:34:30;7.55;;;4.07;;
67274;SDS011;55463;52.324;5.122;2023-01-04T04:36:56;7.95;;;4.60;;
67274;SDS011;55463;52.324;5.122;2023-01-04T04:39:21;9.02;;;4.60;;
67274;SDS011;55463;52.324;5.122;2023-01-04T04:41:46;6.90;;;5.38;;
67274;SDS011;55463;52.324;5.122;2023-01-04T04:44:13;6.32;;;4.95;;
67274;SDS011;55463;52.324;5.122;2023-01-04T04:46:40;8.02;;;5.57;;
67274;SDS011;55463;52.324;5.122;2023-01-04T04:49:07;7.75;;;5.30;;
67274;SDS011;55463;52.324;5.122;2023-01-04T04:51:33;7.35;;;5.00;;
67274;SDS011;55463;52.324;5.122;2023-01-04T04:53:59;7.75;;;4.53;;
67274;SDS011;55463;52.324;5.122;2023-01-04T04:56:24;8.88;;;4.63;;
67274;SDS011;55463;52.324;5.122;2023-01-04T04:58:50;9.65;;;5.30;;
67274;SDS011;55463;52.324;5.122;2023-01-04T05:01:15;12.27;;;5.10;;
67274;SDS011;55463;52.324;5.122;2023-01-04T05:03:40;6.22;;;4.75;;
67274;SDS011;55463;52.324;5.122;2023-01-04T05:06:06;8.13;;;4.80;;
67274;SDS011;55463;52.324;5.122;2023-01-04T05:08:32;13.32;;;5.00;;
67274;SDS011;55463;52.324;5.122;2023-01-04T05:10:57;6.95;;;4.57;;
67274;SDS011;55463;52.324;5.122;2023-01-04T05:13:23;10.07;;;4.30;;
67274;SDS011;55463;52.324;5.122;2023-01-04T05:15:49;9.65;;;4.28;;
67274;SDS011;55463;52.324;5.122;2023-01-04T05:18:17;6.07;;;3.97;;
67274;SDS011;55463;52.324;5.122;2023-01-04T05:20:45;7.45;;;3.60;;
67274;SDS011;55463;52.324;5.122;2023-01-04T05:23:12;5.82;;;3.60;;
67274;SDS011;55463;52.324;5.122;2023-01-04T05:25:38;6.55;;;3.83;;
67274;SDS011;55463;52.324;5.122;2023-01-04T05:28:04;6.35;;;3.90;;
67274;SDS011;55463;52.324;5.122;2023-01-04T05:30:30;8.25;;;4.13;;
67274;SDS011;55463;52.324;5.122;2023-01-04T05:33:14;10.98;;;4.15;;
67274;SDS011;55463;52.324;5.122;2023-01-04T05:35:41;6.28;;;4.10;;
67274;SDS011;55463;52.324;5.122;2023-01-04T05:38:06;7.13;;;4.45;;
67274;SDS011;55463;52.324;5.122;2023-01-04T05:40:32;5.75;;;3.42;;
67274;SDS011;55463;52.324;5.122;2023-01-04T05:42:57;3.45;;;3.13;;
67274;SDS011;55463;52.324;5.122;2023-01-04T05:45:23;5.47;;;3.30;;
67274;SDS011;55463;52.324;5.122;2023-01-04T05:47:49;6.43;;;3.17;;
67274;SDS011;55463;52.324;5.122;2023-01-04T05:50:16;5.38;;;3.20;;
67274;SDS011;55463;52.324;5.122;2023-01-04T05:52:42;6.07;;;2.80;;
67274;SDS011;55463;52.324;5.122;2023-01-04T05:55:07;3.25;;;2.95;;
67274;SDS011;55463;52.324;5.122;2023-01-04T05:57:33;5.28;;;3.00;;
67274;SDS011;55463;52.324;5.122;2023-01-04T05:59:59;3.78;;;3.00;;
67274;SDS011;55463;52.324;5.122;2023-01-04T06:02:26;4.90;;;2.50;;
67274;SDS011;55463;52.324;5.122;2023-01-04T06:04:53;3.15;;;2.90;;
67274;SDS011;55463;52.324;5.122;2023-01-04T06:07:18;3.30;;;3.00;;
67274;SDS011;55463;52.324;5.122;2023-01-04T06:09:44;4.03;;;3.17;;
67274;SDS011;55463;52.324;5.122;2023-01-04T06:12:10;3.78;;;2.97;;
67274;SDS011;55463;52.324;5.122;2023-01-04T06:14:36;5.88;;;4.53;;
67274;SDS011;55463;52.324;5.122;2023-01-04T06:17:01;3.92;;;3.10;;
67274;SDS011;55463;52.324;5.122;2023-01-04T06:19:27;6.25;;;3.30;;
67274;SDS011;55463;52.324;5.122;2023-01-04T06:21:52;4.28;;;3.70;;
67274;SDS011;55463;52.324;5.122;2023-01-04T06:24:18;4.88;;;3.50;;
67274;SDS011;55463;52.324;5.122;2023-01-04T06:26:43;4.57;;;3.75;;
67274;SDS011;55463;52.324;5.122;2023-01-04T06:29:08;5.15;;;3.35;;
67274;SDS011;55463;52.324;5.122;2023-01-04T06:31:34;5.22;;;3.70;;
67274;SDS011;55463;52.324;5.122;2023-01-04T06:33:59;5.90;;;3.35;;
67274;SDS011;55463;52.324;5.122;2023-01-04T06:36:25;5.65;;;3.70;;
67274;SDS011;55463;52.324;5.122;2023-01-04T06:38:51;5.95;;;3.80;;
67274;SDS011;55463;52.324;5.122;2023-01-04T06:41:16;5.18;;;3.50;;
67274;SDS011;55463;52.324;5.122;2023-01-04T06:43:42;3.78;;;3.30;;
67274;SDS011;55463;52.324;5.122;2023-01-04T06:46:07;8.98;;;3.70;;
67274;SDS011;55463;52.324;5.122;2023-01-04T06:48:33;8.63;;;3.67;;
67274;SDS011;55463;52.324;5.122;2023-01-04T06:50:58;4.57;;;3.67;;
67274;SDS011;55463;52.324;5.122;2023-01-04T06:53:23;5.75;;;3.70;;
67274;SDS011;55463;52.324;5.122;2023-01-04T06:55:49;5.13;;;3.40;;
67274;SDS011;55463;52.324;5.122;2023-01-04T06:58:14;10.88;;;3.58;;
67274;SDS011;55463;52.324;5.122;2023-01-04T07:00:40;7.90;;;3.60;;
67274;SDS011;55463;52.324;5.122;2023-01-04T07:03:05;8.55;;;3.92;;
67274;SDS011;55463;52.324;5.122;2023-01-04T07:05:31;7.60;;;3.90;;
67274;SDS011;55463;52.324;5.122;2023-01-04T07:08:00;8.20;;;3.58;;
67274;SDS011;55463;52.324;5.122;2023-01-04T07:10:26;4.57;;;3.50;;
67274;SDS011;55463;52.324;5.122;2023-01-04T07:12:51;5.07;;;3.50;;
67274;SDS011;55463;52.324;5.122;2023-01-04T07:15:17;8.18;;;3.47;;
67274;SDS011;55463;52.324;5.122;2023-01-04T07:17:42;6.88;;;3.65;;
67274;SDS011;55463;52.324;5.122;2023-01-04T07:20:10;10.30;;;3.90;;
67274;SDS011;55463;52.324;5.122;2023-01-04T07:22:36;9.00;;;4.45;;
67274;SDS011;55463;52.324;5.122;2023-01-04T07:25:01;5.10;;;4.30;;
67274;SDS011;55463;52.324;5.122;2023-01-04T07:27:26;10.93;;;4.57;;
67274;SDS011;55463;52.324;5.122;2023-01-04T07:29:52;7.32;;;4.60;;
67274;SDS011;55463;52.324;5.122;2023-01-04T07:32:17;9.23;;;4.47;;
67274;SDS011;55463;52.324;5.122;2023-01-04T07:34:42;9.13;;;5.10;;
67274;SDS011;55463;52.324;5.122;2023-01-04T07:37:08;11.45;;;4.65;;
67274;SDS011;55463;52.324;5.122;2023-01-04T07:39:33;9.15;;;4.78;;
67274;SDS011;55463;52.324;5.122;2023-01-04T07:41:59;9.00;;;5.30;;
67274;SDS011;55463;52.324;5.122;2023-01-04T07:44:24;10.40;;;4.80;;
67274;SDS011;55463;52.324;5.122;2023-01-04T07:46:51;10.73;;;5.78;;
67274;SDS011;55463;52.324;5.122;2023-01-04T07:49:17;7.43;;;5.03;;
67274;SDS011;55463;52.324;5.122;2023-01-04T07:51:43;10.60;;;5.45;;
67274;SDS011;55463;52.324;5.122;2023-01-04T07:54:10;11.90;;;5.20;;
67274;SDS011;55463;52.324;5.122;2023-01-04T07:56:36;10.48;;;5.07;;
67274;SDS011;55463;52.324;5.122;2023-01-04T07:59:03;7.78;;;4.72;;
67274;SDS011;55463;52.324;5.122;2023-01-04T08:01:30;9.23;;;4.63;;
67274;SDS011;55463;52.324;5.122;2023-01-04T08:03:56;7.18;;;4.57;;
67274;SDS011;55463;52.324;5.122;2023-01-04T08:06:21;6.47;;;4.55;;
67274;SDS011;55463;52.324;5.122;2023-01-04T08:08:46;9.70;;;5.28;;
67274;SDS011;55463;52.324;5.122;2023-01-04T08:11:14;8.38;;;4.50;;
67274;SDS011;55463;52.324;5.122;2023-01-04T08:13:41;12.43;;;4.40;;
67274;SDS011;55463;52.324;5.122;2023-01-04T08:16:07;13.27;;;5.53;;
67274;SDS011;55463;52.324;5.122;2023-01-04T08:18:56;6.35;;;4.07;;
67274;SDS011;55463;52.324;5.122;2023-01-04T08:21:23;8.45;;;4.13;;
67274;SDS011;55463;52.324;5.122;2023-01-04T08:23:50;9.88;;;4.35;;
67274;SDS011;55463;52.324;5.122;2023-01-04T08:26:16;12.45;;;4.05;;
67274;SDS011;55463;52.324;5.122;2023-01-04T08:28:42;9.25;;;4.07;;
67274;SDS011;55463;52.324;5.122;2023-01-04T08:31:12;10.35;;;3.60;;
67274;SDS011;55463;52.324;5.122;2023-01-04T08:33:39;5.38;;;3.47;;
67274;SDS011;55463;52.324;5.122;2023-01-04T08:36:15;7.28;;;3.63;;
67274;SDS011;55463;52.324;5.122;2023-01-04T08:38:46;6.60;;;3.00;;
67274;SDS011;55463;52.324;5.122;2023-01-04T08:41:13;4.22;;;2.42;;
67274;SDS011;55463;52.324;5.122;2023-01-04T08:43:39;5.35;;;3.00;;
67274;SDS011;55463;52.324;5.122;2023-01-04T08:46:04;6.28;;;2.95;;
67274;SDS011;55463;52.324;5.122;2023-01-04T08:48:30;6.30;;;2.67;;
67274;SDS011;55463;52.324;5.122;2023-01-04T08:51:01;4.55;;;2.40;;
67274;SDS011;55463;52.324;5.122;2023-01-04T08:53:32;7.30;;;2.35;;
67274;SDS011;55463;52.324;5.122;2023-01-04T08:55:57;5.32;;;2.13;;
67274;SDS011;55463;52.324;5.122;2023-01-04T08:58:24;4.57;;;1.65;;
67274;SDS011;55463;52.324;5.122;2023-01-04T09:00:58;8.57;;;2.40;;
67274;SDS011;55463;52.324;5.122;2023-01-04T09:03:25;9.45;;;2.45;;
67274;SDS011;55463;52.324;5.122;2023-01-04T09:05:50;6.00;;;2.22;;
67274;SDS011;55463;52.324;5.122;2023-01-04T09:08:16;10.70;;;2.53;;
67274;SDS011;55463;52.324;5.122;2023-01-04T09:10:41;9.00;;;2.40;;
67274;SDS011;55463;52.324;5.122;2023-01-04T09:13:06;14.43;;;2.75;;
67274;SDS011;55463;52.324;5.122;2023-01-04T09:15:32;15.30;;;2.90;;
67274;SDS011;55463;52.324;5.122;2023-01-04T09:17:58;18.02;;;3.53;;
67274;SDS011;55463;52.324;5.122;2023-01-04T09:20:23;21.02;;;3.20;;
67274;SDS011;55463;52.324;5.122;2023-01-04T09:22:49;16.45;;;3.08;;
67274;SDS011;55463;52.324;5.122;2023-01-04T09:25:14;14.55;;;2.78;;
67274;SDS011;55463;52.324;5.122;2023-01-04T09:27:40;16.60;;;3.03;;
67274;SDS011;55463;52.324;5.122;2023-01-04T09:30:05;21.45;;;3.05;;
67274;SDS011;55463;52.324;5.122;2023-01-04T09:32:31;15.32;;;3.30;;
67274;SDS011;55463;52.324;5.122;2023-01-04T09:34:57;21.08;;;3.17;;
67274;SDS011;55463;52.324;5.122;2023-01-04T09:37:22;13.50;;;2.78;;
67274;SDS011;55463;52.324;5.122;2023-01-04T09:39:48;16.90;;;3.30;;
67274;SDS011;55463;52.324;5.122;2023-01-04T09:42:19;17.60;;;3.22;;
67274;SDS011;55463;52.324;5.122;2023-01-04T09:44:51;15.15;;;2.85;;
67274;SDS011;55463;52.324;5.122;2023-01-04T09:55:30;12.38;;;2.75;;
67274;SDS011;55463;52.324;5.122;2023-01-04T09:58:20;10.20;;;2.80;;
67274;SDS011;55463;52.324;5.122;2023-01-04T10:01:06;14.70;;;2.60;;
67274;SDS011;55463;52.324;5.122;2023-01-04T10:03:38;13.57;;;2.60;;
67274;SDS011;55463;52.324;5.122;2023-01-04T10:06:27;15.85;;;4.07;;
67274;SDS011;55463;52.324;5.122;2023-01-04T10:08:54;17.85;;;3.45;;
67274;SDS011;55463;52.324;5.122;2023-01-04T10:11:29;15.07;;;3.15;;
67274;SDS011;55463;52.324;5.122;2023-01-04T10:14:07;16.27;;;3.00;;
67274;SDS011;55463;52.324;5.122;2023-01-04T10:35:37;26.52;;;4.18;;
67274;SDS011;55463;52.324;5.122;2023-01-04T10:38:09;16.10;;;3.65;;
67274;SDS011;55463;52.324;5.122;2023-01-04T10:40:39;19.67;;;3.50;;
67274;SDS011;55463;52.324;5.122;2023-01-04T10:45:42;21.25;;;3.67;;
67274;SDS011;55463;52.324;5.122;2023-01-04T10:49:11;17.90;;;3.55;;
67274;SDS011;55463;52.324;5.122;2023-01-04T10:51:38;17.33;;;2.28;;
67274;SDS011;55463;52.324;5.122;2023-01-04T10:54:25;24.17;;;3.60;;
67274;SDS011;55463;52.324;5.122;2023-01-04T10:57:04;13.27;;;3.08;;
67274;SDS011;55463;52.324;5.122;2023-01-04T11:07:59;8.80;;;2.97;;
67274;SDS011;55463;52.324;5.122;2023-01-04T11:10:54;10.88;;;2.58;;
67274;SDS011;55463;52.324;5.122;2023-01-04T11:15:48;12.88;;;2.83;;
67274;SDS011;55463;52.324;5.122;2023-01-04T11:18:15;10.52;;;2.60;;
67274;SDS011;55463;52.324;5.122;2023-01-04T11:20:41;7.40;;;2.40;;
67274;SDS011;55463;52.324;5.122;2023-01-04T11:23:17;12.40;;;2.70;;
67274;SDS011;55463;52.324;5.122;2023-01-04T11:25:48;9.40;;;2.38;;
67274;SDS011;55463;52.324;5.122;2023-01-04T11:28:23;8.50;;;2.45;;
67274;SDS011;55463;52.324;5.122;2023-01-04T11:33:20;13.20;;;2.47;;
67274;SDS011;55463;52.324;5.122;2023-01-04T11:35:49;5.55;;;1.95;;
67274;SDS011;55463;52.324;5.122;2023-01-04T11:43:35;18.42;;;3.40;;
67274;SDS011;55463;52.324;5.122;2023-01-04T11:46:03;9.98;;;2.47;;
67274;SDS011;55463;52.324;5.122;2023-01-04T11:48:29;8.80;;;2.80;;
67274;SDS011;55463;52.324;5.122;2023-01-04T11:50:59;16.10;;;3.00;;
67274;SDS011;55463;52.324;5.122;2023-01-04T11:53:26;11.48;;;2.20;;
67274;SDS011;55463;52.324;5.122;2023-01-04T11:56:14;12.15;;;3.05;;
67274;SDS011;55463;52.324;5.122;2023-01-04T11:58:42;20.25;;;3.53;;
67274;SDS011;55463;52.324;5.122;2023-01-04T12:01:20;14.43;;;2.92;;
67274;SDS011;55463;52.324;5.122;2023-01-04T12:03:47;13.90;;;2.80;;
67274;SDS011;55463;52.324;5.122;2023-01-04T12:08:45;16.42;;;3.08;;
67274;SDS011;55463;52.324;5.122;2023-01-04T12:11:19;9.60;;;3.35;;
67274;SDS011;55463;52.324;5.122;2023-01-04T12:13:56;16.20;;;3.28;;
67274;SDS011;55463;52.324;5.122;2023-01-04T12:16:38;15.20;;;2.60;;
67274;SDS011;55463;52.324;5.122;2023-01-04T12:19:12;11.82;;;2.40;;
67274;SDS011;55463;52.324;5.122;2023-01-04T12:21:40;19.02;;;2.95;;
67274;SDS011;55463;52.324;5.122;2023-01-04T12:24:10;20.25;;;3.08;;
67274;SDS011;55463;52.324;5.122;2023-01-04T12:26:43;15.32;;;2.78;;
67274;SDS011;55463;52.324;5.122;2023-01-04T12:31:51;20.45;;;3.25;;
67274;SDS011;55463;52.324;5.122;2023-01-04T12:34:37;14.75;;;3.00;;
67274;SDS011;55463;52.324;5.122;2023-01-04T12:37:09;12.38;;;2.63;;
67274;SDS011;55463;52.324;5.122;2023-01-04T12:39:37;16.33;;;3.00;;
67274;SDS011;55463;52.324;5.122;2023-01-04T12:42:07;17.02;;;3.15;;
67274;SDS011;55463;52.324;5.122;2023-01-04T12:50:08;17.25;;;3.78;;
67274;SDS011;55463;52.324;5.122;2023-01-04T12:52:41;20.80;;;3.35;;
67274;SDS011;55463;52.324;5.122;2023-01-04T12:56:07;19.27;;;4.05;;
67274;SDS011;55463;52.324;5.122;2023-01-04T13:08:23;19.50;;;3.17;;
67274;SDS011;55463;52.324;5.122;2023-01-04T13:10:50;24.38;;;3.53;;
67274;SDS011;55463;52.324;5.122;2023-01-04T13:21:02;20.83;;;3.72;;
67274;SDS011;55463;52.324;5.122;2023-01-04T13:23:39;14.95;;;3.15;;
67274;SDS011;55463;52.324;5.122;2023-01-04T13:29:07;17.35;;;3.05;;
67274;SDS011;55463;52.324;5.122;2023-01-04T13:34:28;17.67;;;3.45;;
67274;SDS011;55463;52.324;5.122;2023-01-04T13:37:06;17.98;;;3.22;;
67274;SDS011;55463;52.324;5.122;2023-01-04T13:39:35;24.27;;;3.72;;
67274;SDS011;55463;52.324;5.122;2023-01-04T13:45:07;18.73;;;3.55;;
67274;SDS011;55463;52.324;5.122;2023-01-04T13:47:45;14.95;;;3.40;;
67274;SDS011;55463;52.324;5.122;2023-01-04T13:50:33;15.13;;;3.35;;
67274;SDS011;55463;52.324;5.122;2023-01-04T13:53:21;18.13;;;3.20;;
67274;SDS011;55463;52.324;5.122;2023-01-04T13:55:54;21.60;;;4.28;;
67274;SDS011;55463;52.324;5.122;2023-01-04T13:58:31;20.50;;;3.40;;
67274;SDS011;55463;52.324;5.122;2023-01-04T14:01:17;18.50;;;4.35;;
67274;SDS011;55463;52.324;5.122;2023-01-04T14:06:22;21.58;;;4.18;;
67274;SDS011;55463;52.324;5.122;2023-01-04T14:08:55;15.00;;;3.70;;
67274;SDS011;55463;52.324;5.122;2023-01-04T14:19:48;14.65;;;3.33;;
67274;SDS011;55463;52.324;5.122;2023-01-04T14:24:52;19.05;;;3.25;;
67274;SDS011;55463;52.324;5.122;2023-01-04T14:27:36;19.05;;;3.17;;
67274;SDS011;55463;52.324;5.122;2023-01-04T14:33:01;20.02;;;3.75;;
67274;SDS011;55463;52.324;5.122;2023-01-04T14:35:32;17.98;;;3.20;;
67274;SDS011;55463;52.324;5.122;2023-01-04T14:38:01;14.40;;;3.15;;
67274;SDS011;55463;52.324;5.122;2023-01-04T14:40:29;19.30;;;3.92;;
67274;SDS011;55463;52.324;5.122;2023-01-04T14:42:57;16.15;;;3.63;;
67274;SDS011;55463;52.324;5.122;2023-01-04T14:45:23;17.80;;;3.75;;
67274;SDS011;55463;52.324;5.122;2023-01-04T14:47:48;20.13;;;3.65;;
67274;SDS011;55463;52.324;5.122;2023-01-04T14:50:14;16.45;;;3.35;;
67274;SDS011;55463;52.324;5.122;2023-01-04T14:52:48;16.95;;;3.97;;
67274;SDS011;55463;52.324;5.122;2023-01-04T14:55:17;17.83;;;3.80;;
67274;SDS011;55463;52.324;5.122;2023-01-04T14:57:42;12.77;;;2.90;;
67274;SDS011;55463;52.324;5.122;2023-01-04T15:00:12;16.58;;;3.17;;
67274;SDS011;55463;52.324;5.122;2023-01-04T15:02:40;17.55;;;3.20;;
67274;SDS011;55463;52.324;5.122;2023-01-04T15:05:05;22.27;;;3.97;;
67274;SDS011;55463;52.324;5.122;2023-01-04T15:07:35;23.38;;;3.80;;
67274;SDS011;55463;52.324;5.122;2023-01-04T15:10:04;19.02;;;3.85;;
67274;SDS011;55463;52.324;5.122;2023-01-04T15:12:51;22.10;;;3.63;;
67274;SDS011;55463;52.324;5.122;2023-01-04T15:15:17;21.25;;;3.75;;
67274;SDS011;55463;52.324;5.122;2023-01-04T15:17:43;21.30;;;4.00;;
67274;SDS011;55463;52.324;5.122;2023-01-04T15:20:08;17.13;;;3.67;;
67274;SDS011;55463;52.324;5.122;2023-01-04T15:22:34;14.70;;;3.17;;
67274;SDS011;55463;52.324;5.122;2023-01-04T15:24:59;22.27;;;3.63;;
67274;SDS011;55463;52.324;5.122;2023-01-04T15:27:25;19.98;;;4.03;;
67274;SDS011;55463;52.324;5.122;2023-01-04T15:29:50;23.55;;;4.28;;
67274;SDS011;55463;52.324;5.122;2023-01-04T15:32:15;23.75;;;4.55;;
67274;SDS011;55463;52.324;5.122;2023-01-04T15:34:41;25.42;;;3.75;;
67274;SDS011;55463;52.324;5.122;2023-01-04T15:37:06;25.90;;;4.30;;
67274;SDS011;55463;52.324;5.122;2023-01-04T15:39:32;21.77;;;4.35;;
67274;SDS011;55463;52.324;5.122;2023-01-04T15:41:57;20.73;;;4.57;;
67274;SDS011;55463;52.324;5.122;2023-01-04T15:44:42;27.52;;;5.07;;
67274;SDS011;55463;52.324;5.122;2023-01-04T15:47:07;19.60;;;3.55;;
67274;SDS011;55463;52.324;5.122;2023-01-04T15:49:33;22.83;;;3.85;;
67274;SDS011;55463;52.324;5.122;2023-01-04T15:51:59;21.13;;;4.28;;
67274;SDS011;55463;52.324;5.122;2023-01-04T15:54:28;23.40;;;4.40;;
67274;SDS011;55463;52.324;5.122;2023-01-04T15:56:54;25.45;;;4.22;;
67274;SDS011;55463;52.324;5.122;2023-01-04T15:59:19;25.08;;;4.18;;
67274;SDS011;55463;52.324;5.122;2023-01-04T16:01:45;20.13;;;3.33;;
67274;SDS011;55463;52.324;5.122;2023-01-04T16:04:11;24.50;;;4.40;;
67274;SDS011;55463;52.324;5.122;2023-01-04T16:06:36;25.27;;;4.53;;
67274;SDS011;55463;52.324;5.122;2023-01-04T16:09:02;21.75;;;4.32;;
67274;SDS011;55463;52.324;5.122;2023-01-04T16:11:28;29.00;;;4.53;;
67274;SDS011;55463;52.324;5.122;2023-01-04T16:13:53;21.60;;;3.75;;
67274;SDS011;55463;52.324;5.122;2023-01-04T16:16:20;38.78;;;5.20;;
67274;SDS011;55463;52.324;5.122;2023-01-04T16:18:48;22.42;;;4.47;;
67274;SDS011;55463;52.324;5.122;2023-01-04T16:21:19;24.70;;;5.22;;
67274;SDS011;55463;52.324;5.122;2023-01-04T16:23:49;33.20;;;5.28;;
67274;SDS011;55463;52.324;5.122;2023-01-04T16:26:16;22.58;;;4.60;;
67274;SDS011;55463;52.324;5.122;2023-01-04T16:28:42;28.85;;;4.65;;
67274;SDS011;55463;52.324;5.122;2023-01-04T16:31:08;24.70;;;3.85;;
67274;SDS011;55463;52.324;5.122;2023-01-04T16:33:33;23.30;;;4.50;;
67274;SDS011;55463;52.324;5.122;2023-01-04T16:38:35;35.25;;;5.43;;
67274;SDS011;55463;52.324;5.122;2023-01-04T16:41:01;24.63;;;5.15;;
67274;SDS011;55463;52.324;5.122;2023-01-04T16:43:28;28.83;;;4.75;;
67274;SDS011;55463;52.324;5.122;2023-01-04T16:46:12;23.35;;;5.05;;
67274;SDS011;55463;52.324;5.122;2023-01-04T16:48:42;28.85;;;5.28;;
67274;SDS011;55463;52.324;5.122;2023-01-04T16:51:08;25.48;;;4.80;;
67274;SDS011;55463;52.324;5.122;2023-01-04T16:53:34;22.38;;;4.43;;
67274;SDS011;55463;52.324;5.122;2023-01-04T16:56:07;20.50;;;4.30;;
67274;SDS011;55463;52.324;5.122;2023-01-04T16:58:35;26.88;;;4.90;;
67274;SDS011;55463;52.324;5.122;2023-01-04T17:01:08;19.63;;;4.47;;
67274;SDS011;55463;52.324;5.122;2023-01-04T17:03:39;26.23;;;4.00;;
67274;SDS011;55463;52.324;5.122;2023-01-04T17:06:07;30.27;;;4.80;;
67274;SDS011;55463;52.324;5.122;2023-01-04T17:08:35;25.05;;;4.35;;
67274;SDS011;55463;52.324;5.122;2023-01-04T17:11:04;28.38;;;4.97;;
67274;SDS011;55463;52.324;5.122;2023-01-04T17:13:31;26.25;;;4.05;;
67274;SDS011;55463;52.324;5.122;2023-01-04T17:15:58;23.20;;;4.45;;
67274;SDS011;55463;52.324;5.122;2023-01-04T17:18:24;23.45;;;4.40;;
67274;SDS011;55463;52.324;5.122;2023-01-04T17:20:56;18.85;;;4.03;;